Time;durP1;ratioP1;P1;durP2;ratioP2;P2;SDS_P1;SDS_P2;PMS_P1;PMS_P2;Temp;Humidity;BMP_temperature;BMP_pressure;BME280_temperature;BME280_humidity;BME280_pressure;Samples;Min_cycle;Max_cycle;Signal;HPM_P1;HPM_P2
2023/10/18 00:01:23;;;;;;;12.45;10.23;;;;;;;6.01;100.00;101204.63;5050225;28;20035;-82
2023/10/18 00:03:49;;;;;;;11.95;9.32;;;;;;;6.03;100.00;101192.34;5050790;28;20040;-78
2023/10/18 00:06:21;;;;;;;11.35;10.20;;;;;;;6.05;100.00;101187.03;5033864;28;20402;-79
2023/10/18 00:08:46;;;;;;;11.97;9.57;;;;;;;6.06;100.00;101186.97;5029736;28;20028;-79
2023/10/18 00:11:13;;;;;;;16.40;10.07;;;;;;;6.07;100.00;101187.81;5044774;28;20291;-82
2023/10/18 00:13:38;;;;;;;10.75;9.70;;;;;;;6.06;100.00;101181.72;5042011;28;20026;-79
2023/10/18 00:16:06;;;;;;;10.65;9.55;;;;;;;6.07;100.00;101185.19;5065894;28;20036;-79
2023/10/18 00:18:32;;;;;;;10.70;9.60;;;;;;;6.11;100.00;101184.13;5049703;28;20044;-79
2023/10/18 00:20:59;;;;;;;12.82;9.57;;;;;;;6.12;100.00;101186.66;5048932;28;20040;-78
2023/10/18 00:23:26;;;;;;;12.05;10.35;;;;;;;6.12;100.00;101181.41;5050151;28;20075;-81
2023/10/18 00:25:51;;;;;;;13.63;9.52;;;;;;;6.16;100.00;101188.19;5049603;28;20437;-79
2023/10/18 00:28:17;;;;;;;10.40;9.40;;;;;;;6.17;100.00;101175.97;5044309;28;20029;-79
2023/10/18 00:30:43;;;;;;;10.95;9.43;;;;;;;6.16;100.00;101177.72;5040025;28;20029;-79
2023/10/18 00:33:09;;;;;;;12.73;9.30;;;;;;;6.18;100.00;101178.50;5039851;28;20013;-79
2023/10/18 00:35:39;;;;;;;10.65;9.55;;;;;;;6.18;100.00;101185.50;5061336;28;20024;-79
2023/10/18 00:38:14;;;;;;;13.73;9.90;;;;;;;6.18;100.00;101183.72;5049753;28;20399;-79
2023/10/18 00:40:40;;;;;;;10.55;9.05;;;;;;;6.16;100.00;101171.66;5047387;28;20031;-82
2023/10/18 00:43:16;;;;;;;13.40;10.07;;;;;;;6.19;100.00;101176.72;5048975;28;20053;-79
2023/10/18 00:45:47;;;;;;;11.18;9.73;;;;;;;6.16;100.00;101172.50;5044011;28;20054;-79
2023/10/18 00:48:13;;;;;;;11.25;9.20;;;;;;;6.19;100.00;101172.34;5035090;28;20021;-79
2023/10/18 00:50:43;;;;;;;9.68;8.70;;;;;;;6.20;100.00;101174.03;5046134;28;20522;-79
2023/10/18 00:53:10;;;;;;;10.90;8.75;;;;;;;6.20;100.00;101176.66;5046502;28;20425;-82
2023/10/18 00:55:37;;;;;;;11.43;9.32;;;;;;;6.21;100.00;101159.22;5046479;28;20478;-79
2023/10/18 00:58:08;;;;;;;10.82;9.50;;;;;;;6.24;100.00;101161.66;5045855;28;20513;-79
2023/10/18 01:00:40;;;;;;;11.75;9.32;;;;;;;6.22;100.00;101148.69;5047427;28;20051;-82
2023/10/18 01:03:06;;;;;;;13.25;9.65;;;;;;;6.23;100.00;101145.13;5046355;28;20108;-82
2023/10/18 01:05:33;;;;;;;11.57;9.27;;;;;;;6.18;100.00;101139.31;5050135;28;20028;-83
2023/10/18 01:08:06;;;;;;;10.18;9.02;;;;;;;6.21;100.00;101138.31;5047085;28;20060;-79
2023/10/18 01:10:31;;;;;;;10.45;9.30;;;;;;;6.20;100.00;101132.22;5048726;28;20390;-82
2023/10/18 01:12:56;;;;;;;11.32;9.35;;;;;;;6.22;100.00;101132.16;5049572;28;20032;-79
2023/10/18 01:15:22;;;;;;;10.25;9.25;;;;;;;6.19;100.00;101125.31;5050492;28;20471;-79
2023/10/18 01:17:47;;;;;;;14.20;10.07;;;;;;;6.18;100.00;101123.63;5063813;28;20116;-79
2023/10/18 01:20:47;;;;;;;14.23;9.55;;;;;;;6.19;100.00;101117.47;5049297;28;20264;-79
2023/10/18 01:23:07;;;;;;;11.05;9.88;;;;;;;6.18;100.00;101118.41;5047886;28;20029;-79
2023/10/18 01:25:32;;;;;;;11.85;9.50;;;;;;;6.17;100.00;101116.72;5047156;28;20111;-83
2023/10/18 01:27:58;;;;;;;10.98;9.63;;;;;;;6.17;100.00;101118.50;5065979;28;20103;-81
2023/10/18 01:30:23;;;;;;;13.15;9.45;;;;;;;6.15;100.00;101110.72;5047723;28;20033;-79
2023/10/18 01:32:48;;;;;;;9.90;8.90;;;;;;;6.14;100.00;101114.25;5046617;28;20075;-79
2023/10/18 01:35:15;;;;;;;12.02;9.32;;;;;;;6.14;100.00;101105.59;5047884;28;20036;-79
2023/10/18 01:37:43;;;;;;;10.65;8.68;;;;;;;6.13;100.00;101109.13;5048247;28;20536;-82
2023/10/18 01:40:22;;;;;;;10.80;9.25;;;;;;;6.12;100.00;101105.66;5047648;28;20517;-79
2023/10/18 01:42:56;;;;;;;11.98;9.35;;;;;;;6.11;100.00;101101.38;5047463;28;20474;-79
2023/10/18 01:45:22;;;;;;;10.88;8.80;;;;;;;6.07;100.00;101094.63;5061445;28;20162;-79
2023/10/18 01:47:49;;;;;;;11.18;8.65;;;;;;;6.08;100.00;101090.22;5054806;28;20037;-79
2023/10/18 01:50:16;;;;;;;13.82;9.07;;;;;;;6.08;100.00;101085.84;5038598;28;20025;-79
2023/10/18 01:52:42;;;;;;;12.25;9.13;;;;;;;6.07;100.00;101078.94;5044706;28;20021;-79
2023/10/18 01:55:12;;;;;;;10.25;8.45;;;;;;;6.08;100.00;101077.16;5046932;28;20029;-82
2023/10/18 01:57:38;;;;;;;12.48;9.40;;;;;;;6.06;100.00;101064.19;5029011;28;20036;-82
2023/10/18 02:00:03;;;;;;;12.18;8.73;;;;;;;6.02;100.00;101060.06;5028696;28;20841;-82
2023/10/18 02:02:32;;;;;;;12.48;8.80;;;;;;;6.06;100.00;101060.75;5027464;28;20022;-82
2023/10/18 02:04:57;;;;;;;11.98;8.88;;;;;;;6.03;100.00;101060.91;5045600;28;20475;-79
2023/10/18 02:07:22;;;;;;;10.43;8.73;;;;;;;6.02;100.00;101057.44;5045966;28;20086;-79
2023/10/18 02:09:48;;;;;;;10.85;8.98;;;;;;;6.00;100.00;101056.66;5051700;28;20020;-82
2023/10/18 02:12:20;;;;;;;11.50;8.95;;;;;;;6.01;100.00;101057.53;5050628;28;20025;-83
2023/10/18 02:14:46;;;;;;;13.37;9.33;;;;;;;6.01;100.00;101047.91;5050431;28;20398;-83
2023/10/18 02:17:11;;;;;;;11.82;9.27;;;;;;;5.98;100.00;101040.22;5065540;28;20033;-79
2023/10/18 02:19:37;;;;;;;13.07;8.77;;;;;;;5.98;100.00;101050.66;5053425;28;20029;-78
2023/10/18 02:22:08;;;;;;;9.98;8.98;;;;;;;5.96;100.00;101045.53;5052263;28;20048;-79
2023/10/18 02:24:38;;;;;;;9.48;8.48;;;;;;;5.95;100.00;101042.97;5054019;28;20023;-79
2023/10/18 02:27:15;;;;;;;13.32;8.75;;;;;;;5.93;100.00;101045.69;5050255;28;20375;-79
2023/10/18 02:29:40;;;;;;;9.68;8.60;;;;;;;5.91;100.00;101042.31;5050226;28;20029;-83
2023/10/18 02:32:21;;;;;;;10.75;8.63;;;;;;;5.93;100.00;101050.06;5052607;28;20071;-83
2023/10/18 02:34:47;;;;;;;11.80;8.23;;;;;;;5.93;100.00;101044.84;5048261;28;20048;-82
2023/10/18 02:37:15;;;;;;;10.57;9.43;;;;;;;5.92;100.00;101040.53;5041153;28;20483;-79
2023/10/18 02:39:41;;;;;;;11.15;8.82;;;;;;;5.90;100.00;101039.78;5051766;28;20032;-79
2023/10/18 02:42:06;;;;;;;11.65;9.32;;;;;;;5.91;100.00;101031.00;5050413;28;20025;-79
2023/10/18 02:44:34;;;;;;;11.18;9.10;;;;;;;5.91;100.00;101024.03;5051032;28;20031;-79
2023/10/18 02:49:54;;;;;;;13.40;9.40;;;;;;;5.94;100.00;101020.41;5049219;28;20037;-79
2023/10/18 02:52:20;;;;;;;9.95;8.85;;;;;;;5.94;100.00;101015.19;5064964;28;20017;-79
2023/10/18 02:54:48;;;;;;;11.13;8.45;;;;;;;5.92;100.00;101011.81;5048646;28;20036;-79
2023/10/18 02:57:14;;;;;;;10.02;8.50;;;;;;;5.91;100.00;101010.97;5067695;28;20086;-82
2023/10/18 02:59:41;;;;;;;11.30;9.20;;;;;;;5.89;100.00;101006.72;5049487;28;20025;-79
2023/10/18 03:02:13;;;;;;;12.50;9.23;;;;;;;5.88;100.00;100999.81;5050521;28;20029;-79
2023/10/18 03:04:39;;;;;;;11.63;9.07;;;;;;;5.86;100.00;100996.44;5049099;28;20063;-79
2023/10/18 03:07:08;;;;;;;12.23;9.65;;;;;;;5.83;100.00;100991.38;5051358;28;20119;-79
2023/10/18 03:11:59;;;;;;;10.82;8.93;;;;;;;5.80;100.00;100996.75;5039177;28;20026;-82
2023/10/18 03:17:32;;;;;;;11.75;9.88;;;;;;;5.81;100.00;100993.22;5048973;28;20469;-82
2023/10/18 03:19:57;;;;;;;11.80;9.38;;;;;;;5.79;100.00;100984.63;5056222;28;20107;-79
2023/10/18 03:22:26;;;;;;;11.10;8.60;;;;;;;5.80;100.00;100981.09;5042344;28;20120;-79
2023/10/18 03:24:56;;;;;;;11.27;9.70;;;;;;;5.78;100.00;100982.94;5044953;28;20091;-82
2023/10/18 03:27:25;;;;;;;11.43;9.25;;;;;;;5.76;100.00;100984.78;5051051;28;20021;-80
2023/10/18 03:29:58;;;;;;;9.88;8.77;;;;;;;5.78;100.00;100977.72;5043537;28;20021;-82
2023/10/18 03:32:24;;;;;;;11.68;9.65;;;;;;;5.78;100.00;100972.50;5052264;28;20017;-82
2023/10/18 03:34:52;;;;;;;11.93;9.20;;;;;;;5.78;100.00;100972.50;5053300;28;20025;-81
2023/10/18 03:37:21;;;;;;;10.70;9.43;;;;;;;5.78;100.00;100968.13;5051783;28;20021;-80
2023/10/18 03:39:49;;;;;;;12.45;9.27;;;;;;;5.75;100.00;100954.38;5049504;28;20580;-82
2023/10/18 03:42:30;;;;;;;10.07;9.10;;;;;;;5.74;100.00;100950.09;5050226;28;20025;-80
2023/10/18 03:44:57;;;;;;;11.40;9.60;;;;;;;5.74;100.00;100945.72;5050335;28;20029;-82
2023/10/18 03:47:28;;;;;;;11.55;9.25;;;;;;;5.73;100.00;100938.81;5052004;28;20124;-79
2023/10/18 03:49:55;;;;;;;13.23;9.52;;;;;;;5.77;100.00;100934.25;5063180;28;20557;-79
2023/10/18 03:52:21;;;;;;;12.90;9.40;;;;;;;5.75;100.00;100936.09;5049089;28;20497;-78
2023/10/18 03:57:19;;;;;;;12.57;9.50;;;;;;;5.79;100.00;100929.81;5052385;28;20040;-82
2023/10/18 03:59:45;;;;;;;12.68;9.95;;;;;;;5.78;100.00;100925.50;5050681;28;20025;-79
2023/10/18 04:04:48;;;;;;;10.77;9.33;;;;;;;5.76;100.00;100917.75;5032190;28;20029;-79
2023/10/18 04:07:16;;;;;;;10.38;9.05;;;;;;;5.78;100.00;100915.06;5061904;28;20045;-79
2023/10/18 04:10:00;;;;;;;11.98;8.80;;;;;;;5.77;100.00;100922.06;5045067;28;20013;-80
2023/10/18 04:12:27;;;;;;;11.88;9.40;;;;;;;5.77;100.00;100918.59;5048940;28;20016;-79
2023/10/18 04:14:58;;;;;;;11.90;9.23;;;;;;;5.76;100.00;100912.53;5040889;28;20021;-80
2023/10/18 04:17:38;;;;;;;12.48;9.48;;;;;;;5.78;100.00;100904.63;5045036;28;20078;-80
2023/10/18 04:20:22;;;;;;;10.20;9.02;;;;;;;5.81;100.00;100900.06;5047075;28;20043;-83
2023/10/18 04:22:51;;;;;;;12.15;9.77;;;;;;;5.81;100.00;100902.69;5033421;28;20475;-84
2023/10/18 04:25:25;;;;;;;11.13;9.65;;;;;;;5.80;100.00;100892.31;5048104;28;20487;-83
2023/10/18 04:27:52;;;;;;;10.48;8.63;;;;;;;5.81;100.00;100891.41;5039063;28;20075;-83
2023/10/18 04:30:22;;;;;;;10.10;8.55;;;;;;;5.82;100.00;100888.72;5060128;28;20026;-79
2023/10/18 04:32:53;;;;;;;13.07;8.98;;;;;;;5.84;100.00;100886.84;5066469;28;20032;-79
2023/10/18 04:35:25;;;;;;;13.82;9.52;;;;;;;5.84;100.00;100886.00;5060292;28;20020;-83
2023/10/18 04:37:51;;;;;;;12.18;8.40;;;;;;;5.84;100.00;100867.72;5035791;28;20021;-79
2023/10/18 04:40:22;;;;;;;11.27;8.80;;;;;;;5.83;100.00;100879.94;5030911;28;20028;-79
2023/10/18 04:42:51;;;;;;;9.40;8.35;;;;;;;5.84;100.00;100878.19;5029740;28;20025;-79
2023/10/18 04:45:18;;;;;;;14.10;9.18;;;;;;;5.83;100.00;100881.72;5049454;28;20496;-79
2023/10/18 04:47:49;;;;;;;10.20;8.60;;;;;;;5.83;100.00;100882.56;5050359;28;20060;-83
2023/10/18 04:50:18;;;;;;;11.73;9.07;;;;;;;5.85;100.00;100872.88;5065471;28;20094;-79
2023/10/18 04:52:47;;;;;;;10.65;9.23;;;;;;;5.86;100.00;100868.50;5063558;28;20478;-79
2023/10/18 04:55:14;;;;;;;12.00;9.15;;;;;;;5.85;100.00;100869.41;5045714;28;20025;-79
2023/10/18 04:57:40;;;;;;;12.43;9.50;;;;;;;5.86;100.00;100866.72;5059208;28;20024;-80
2023/10/18 05:00:35;;;;;;;11.68;9.07;;;;;;;5.86;100.00;100856.28;5047866;28;20037;-80
2023/10/18 05:03:06;;;;;;;10.35;9.07;;;;;;;5.87;100.00;100867.56;5053171;28;20032;-83
2023/10/18 05:05:37;;;;;;;12.82;9.10;;;;;;;5.86;100.00;100860.66;5065717;28;20078;-79
2023/10/18 05:08:04;;;;;;;10.38;9.23;;;;;;;5.86;100.00;100851.06;5063768;28;20083;-79
2023/10/18 05:10:29;;;;;;;10.90;9.00;;;;;;;5.85;100.00;100849.38;5046871;28;20037;-80
2023/10/18 05:13:01;;;;;;;12.52;9.18;;;;;;;5.87;100.00;100847.53;5051886;28;20200;-82
2023/10/18 05:15:29;;;;;;;11.52;9.20;;;;;;;5.86;100.00;100839.78;5038084;28;20035;-79
2023/10/18 05:18:04;;;;;;;13.45;9.20;;;;;;;5.85;100.00;100836.31;5043831;28;20414;-79
2023/10/18 05:20:46;;;;;;;15.65;9.75;;;;;;;5.85;100.00;100838.09;5046832;28;20033;-79
2023/10/18 05:26:17;;;;;;;13.23;10.10;;;;;;;5.86;100.00;100839.78;5049404;28;20069;-79
2023/10/18 05:28:47;;;;;;;12.80;9.68;;;;;;;5.85;100.00;100827.66;5044416;28;20028;-79
2023/10/18 05:33:48;;;;;;;11.50;9.63;;;;;;;5.85;100.00;100838.09;5058857;28;20040;-83
2023/10/18 05:44:01;;;;;;;13.10;9.70;;;;;;;5.81;100.00;100826.97;5053048;28;20054;-79
2023/10/18 05:46:27;;;;;;;13.00;9.88;;;;;;;5.82;100.00;100825.22;5054105;28;20045;-80
2023/10/18 05:48:55;;;;;;;12.85;9.52;;;;;;;5.79;100.00;100823.59;5052120;28;20045;-80
2023/10/18 05:52:16;;;;;;;17.08;10.20;;;;;;;5.81;100.00;100826.13;5053146;28;20028;-80
2023/10/18 05:54:07;;;;;;;12.90;9.30;;;;;;;5.79;100.00;100822.75;5051444;28;20120;-80
2023/10/18 05:56:32;;;;;;;13.43;9.55;;;;;;;5.79;100.00;100817.53;5045072;28;20675;-80
2023/10/18 06:01:50;;;;;;;13.52;10.20;;;;;;;5.78;100.00;100810.63;5044870;28;20040;-80
2023/10/18 06:04:23;;;;;;;12.73;9.25;;;;;;;5.77;100.00;100814.19;5049858;28;20028;-79
2023/10/18 06:06:52;;;;;;;11.65;9.98;;;;;;;5.79;100.00;100807.94;5050492;28;20065;-79
2023/10/18 06:09:26;;;;;;;12.35;9.73;;;;;;;5.79;100.00;100807.94;5050062;28;20020;-80
2023/10/18 06:11:55;;;;;;;11.73;9.63;;;;;;;5.78;100.00;100808.03;5047718;28;20016;-79
2023/10/18 06:14:25;;;;;;;13.00;10.48;;;;;;;5.78;100.00;100798.44;5049388;28;20021;-79
2023/10/18 06:17:06;;;;;;;15.02;9.48;;;;;;;5.77;100.00;100790.69;5050726;28;20081;-79
2023/10/18 06:19:32;;;;;;;13.05;9.15;;;;;;;5.77;100.00;100777.63;5049206;28;20488;-79
2023/10/18 06:21:57;;;;;;;14.35;9.13;;;;;;;5.78;100.00;100779.31;5047708;28;20120;-79
2023/10/18 06:24:27;;;;;;;12.55;9.40;;;;;;;5.77;100.00;100780.25;5050364;28;20052;-80
2023/10/18 06:26:52;;;;;;;12.70;9.43;;;;;;;5.77;100.00;100772.41;5048985;28;20119;-79
2023/10/18 06:29:23;;;;;;;14.20;9.35;;;;;;;5.78;100.00;100774.94;5046366;28;20647;-80
2023/10/18 06:31:49;;;;;;;14.43;9.93;;;;;;;5.80;100.00;100772.22;5052239;28;20063;-79
2023/10/18 06:34:17;;;;;;;14.48;9.38;;;;;;;5.80;100.00;100772.22;5050511;28;20486;-79
2023/10/18 06:36:52;;;;;;;13.38;9.07;;;;;;;5.81;100.00;100773.91;5050584;28;20021;-80
2023/10/18 06:39:28;;;;;;;12.02;8.90;;;;;;;5.83;100.00;100766.84;5052599;28;20021;-79
2023/10/18 06:41:57;;;;;;;12.43;9.32;;;;;;;5.84;100.00;100771.13;5051050;28;20051;-83
2023/10/18 06:44:30;;;;;;;14.18;8.98;;;;;;;5.85;100.00;100759.75;5067696;28;20407;-80
2023/10/18 06:46:57;;;;;;;11.95;9.35;;;;;;;5.86;100.00;100757.06;5050793;28;20103;-79
2023/10/18 06:49:22;;;;;;;15.40;9.48;;;;;;;5.86;100.00;100753.63;5051478;28;20071;-83
2023/10/18 06:51:50;;;;;;;11.02;9.13;;;;;;;5.89;100.00;100753.44;5051623;28;20025;-79
2023/10/18 06:54:28;;;;;;;14.65;9.30;;;;;;;5.91;100.00;100746.41;5049454;28;20036;-79
2023/10/18 06:56:53;;;;;;;13.18;9.15;;;;;;;5.92;100.00;100745.47;5048794;28;20530;-80
2023/10/18 06:59:26;;;;;;;10.27;8.80;;;;;;;5.92;100.00;100746.31;5049842;28;20063;-79
2023/10/18 07:01:58;;;;;;;;;;;;;;;6.00;100.00;100743.25;5049384;28;20083;-83
2023/10/18 07:04:35;;;;;;;15.43;9.45;;;;;;;5.97;100.00;100735.59;5066346;28;19919;-80
2023/10/18 07:07:00;;;;;;;13.85;9.35;;;;;;;5.99;100.00;100741.56;5049616;28;20094;-79
2023/10/18 07:09:26;;;;;;;14.90;9.25;;;;;;;6.00;99.35;100732.81;5050073;28;20491;-80
2023/10/18 07:11:53;;;;;;;13.25;9.45;;;;;;;6.06;100.00;100737.72;5049008;28;20040;-80
2023/10/18 07:14:20;;;;;;;15.85;9.40;;;;;;;6.09;99.64;100732.31;5049511;28;20033;-80
2023/10/18 07:16:48;;;;;;;11.23;8.75;;;;;;;6.13;100.00;100730.38;5047210;28;20028;-80
2023/10/18 07:19:26;;;;;;;13.85;8.95;;;;;;;6.15;99.13;100725.88;5049164;28;20036;-82
2023/10/18 07:21:57;;;;;;;11.27;8.75;;;;;;;6.17;99.45;100714.41;5066849;28;20029;-78
2023/10/18 07:24:32;;;;;;;13.48;9.13;;;;;;;6.22;98.44;100712.38;5064354;28;20108;-80
2023/10/18 07:26:59;;;;;;;10.25;8.35;;;;;;;6.24;98.35;100713.13;5049305;28;20044;-80
2023/10/18 07:29:27;;;;;;;12.68;9.15;;;;;;;6.28;98.05;100711.19;5049484;28;20032;-80
2023/10/18 07:31:53;;;;;;;15.55;9.27;;;;;;;6.34;98.33;100709.97;5046409;28;20048;-80
2023/10/18 07:34:25;;;;;;;13.95;8.45;;;;;;;6.38;98.52;100706.25;5031203;28;20021;-80
2023/10/18 07:36:54;;;;;;;13.73;8.98;;;;;;;6.44;97.64;100705.91;5039519;28;20027;-80
2023/10/18 07:39:24;;;;;;;13.43;8.75;;;;;;;6.50;97.56;100702.94;5065257;28;20033;-80
2023/10/18 07:41:50;;;;;;;13.63;8.52;;;;;;;6.54;97.90;100691.38;5049624;28;20036;-80
2023/10/18 07:44:15;;;;;;;13.57;8.52;;;;;;;6.58;96.52;100687.63;5048648;28;20021;-80
2023/10/18 07:46:41;;;;;;;12.57;8.73;;;;;;;6.64;96.08;100689.88;5058458;28;20044;-83
2023/10/18 07:49:13;;;;;;;12.48;8.63;;;;;;;6.68;96.18;100687.91;5070079;28;20019;-80
2023/10/18 07:51:48;;;;;;;13.55;8.40;;;;;;;6.72;96.08;100685.00;5052888;28;20021;-83
2023/10/18 07:54:20;;;;;;;12.38;8.23;;;;;;;6.78;96.65;100675.97;5047144;28;20122;-83
2023/10/18 07:56:49;;;;;;;11.32;8.35;;;;;;;6.83;96.21;100671.31;5050972;28;20110;-80
2023/10/18 07:59:30;;;;;;;11.43;8.35;;;;;;;6.88;95.73;100670.09;5050180;28;20132;-80
2023/10/18 08:02:09;;;;;;;11.80;8.90;;;;;;;6.93;94.16;100671.59;5046538;28;20033;-80
2023/10/18 08:04:39;;;;;;;13.25;8.85;;;;;;;6.99;94.75;100660.75;5047810;28;20082;-84
2023/10/18 08:07:10;;;;;;;11.60;8.23;;;;;;;7.08;94.69;100681.09;5049952;28;20048;-78
2023/10/18 08:09:42;;;;;;;12.82;8.27;;;;;;;7.15;93.42;100672.75;5050359;28;20025;-80
2023/10/18 08:12:19;;;;;;;13.75;8.70;;;;;;;7.27;93.20;100668.56;5040369;28;20115;-78
2023/10/18 08:14:48;;;;;;;11.52;8.30;;;;;;;7.37;92.14;100667.03;5049283;28;20513;-83
2023/10/18 08:17:30;;;;;;;11.80;8.70;;;;;;;7.41;91.51;100652.81;5053474;28;20178;-83
2023/10/18 08:19:58;;;;;;;11.83;7.90;;;;;;;7.54;91.84;100661.53;5033641;28;20028;-78
2023/10/18 08:22:23;;;;;;;14.13;8.20;;;;;;;7.64;91.41;100656.56;5033696;28;20034;-78
2023/10/18 08:24:52;;;;;;;12.85;8.25;;;;;;;7.69;91.40;100654.50;5040186;28;20090;-78
2023/10/18 08:27:18;;;;;;;11.07;7.82;;;;;;;7.69;90.27;100651.03;5047739;28;20474;-78
2023/10/18 08:29:45;;;;;;;12.27;8.93;;;;;;;7.75;91.20;100646.22;5049178;28;20525;-77
2023/10/18 08:32:17;;;;;;;10.80;8.05;;;;;;;7.76;90.52;100633.97;5045541;28;20115;-78
2023/10/18 08:34:47;;;;;;;13.03;8.47;;;;;;;7.80;89.96;100638.06;5047787;28;20024;-78
2023/10/18 08:37:13;;;;;;;11.25;7.55;;;;;;;7.84;90.33;100632.53;5046611;28;20032;-76
2023/10/18 08:39:55;;;;;;;10.10;7.97;;;;;;;7.91;90.00;100634.72;5049195;28;20086;-81
2023/10/18 08:42:39;;;;;;;12.93;8.60;;;;;;;7.93;89.45;100633.69;5064158;28;20029;-77
2023/10/18 08:45:07;;;;;;;13.00;8.63;;;;;;;7.93;88.98;100628.44;5049521;28;20105;-76
2023/10/18 08:47:39;;;;;;;12.95;7.93;;;;;;;7.99;89.19;100629.81;5048816;28;20083;-77
2023/10/18 08:50:08;;;;;;;10.97;7.97;;;;;;;8.05;89.15;100627.66;5050458;28;20056;-81
2023/10/18 08:52:39;;;;;;;13.23;8.45;;;;;;;8.22;90.16;100623.88;5048691;28;20033;-83
2023/10/18 08:55:23;;;;;;;10.27;7.95;;;;;;;8.35;88.86;100621.28;5048391;28;20067;-77
2023/10/18 08:57:55;;;;;;;11.27;7.45;;;;;;;8.48;88.98;100619.53;5048357;28;20028;-80
2023/10/18 09:02:50;;;;;;;9.25;7.20;;;;;;;8.69;86.59;100612.78;5049514;28;19913;-77
2023/10/18 09:05:19;;;;;;;11.35;7.85;;;;;;;8.77;85.62;100613.09;5048554;28;20025;-77
2023/10/18 09:07:46;;;;;;;9.15;7.78;;;;;;;8.88;85.94;100606.25;5049797;28;20085;-78
2023/10/18 09:15:27;;;;;;;9.05;6.90;;;;;;;9.07;83.56;100586.47;5049504;28;20041;-77
2023/10/18 09:17:54;;;;;;;9.40;7.45;;;;;;;9.13;83.48;100582.56;5053704;28;20029;-76
2023/10/18 09:20:26;;;;;;;12.90;7.20;;;;;;;9.13;82.54;100577.31;5053344;28;20371;-77
2023/10/18 09:22:53;;;;;;;12.43;7.40;;;;;;;9.22;82.57;100576.66;5080763;28;20028;-79
2023/10/18 09:25:25;;;;;;;9.73;7.00;;;;;;;9.34;83.31;100574.91;5091099;28;20005;-77
2023/10/18 09:27:52;;;;;;;10.02;6.70;;;;;;;9.48;82.85;100568.66;5075087;28;20029;-77
2023/10/18 09:30:20;;;;;;;10.77;6.80;;;;;;;9.61;83.11;100562.38;5075060;28;20017;-76
2023/10/18 09:32:46;;;;;;;8.60;6.18;;;;;;;9.72;82.22;100572.09;5088299;28;20077;-77
2023/10/18 09:35:13;;;;;;;10.60;6.85;;;;;;;9.81;81.73;100555.63;5070305;28;20462;-77
2023/10/18 09:37:38;;;;;;;10.00;6.82;;;;;;;9.92;80.90;100553.03;5068774;28;20025;-77
2023/10/18 09:40:05;;;;;;;7.40;6.40;;;;;;;9.97;79.74;100545.63;5091237;28;20040;-77
2023/10/18 09:42:30;;;;;;;9.32;6.20;;;;;;;10.01;80.56;100536.56;5072938;28;20009;-77
2023/10/18 09:44:56;;;;;;;9.07;6.47;;;;;;;9.99;79.48;100527.09;5069863;28;20059;-77
2023/10/18 09:47:24;;;;;;;8.98;6.22;;;;;;;10.05;79.92;100526.66;5070552;28;20049;-77
2023/10/18 09:49:50;;;;;;;8.20;6.20;;;;;;;10.16;79.75;100518.78;5069688;28;20031;-77
2023/10/18 09:52:16;;;;;;;7.60;5.78;;;;;;;10.30;80.00;100510.66;5084508;28;20020;-78
2023/10/18 09:54:49;;;;;;;8.38;6.53;;;;;;;10.49;80.26;100504.81;5068338;28;20027;-76
2023/10/18 09:57:23;;;;;;;8.15;6.10;;;;;;;10.65;78.76;100504.44;5050620;28;20399;-77
2023/10/18 09:59:53;;;;;;;8.93;6.50;;;;;;;10.69;77.34;100497.97;5051046;28;20581;-76
2023/10/18 10:02:20;;;;;;;9.45;6.45;;;;;;;10.68;77.32;100499.75;5049636;28;20113;-79
2023/10/18 10:04:52;;;;;;;6.47;5.85;;;;;;;10.72;76.84;100494.25;5051556;28;20429;-79
2023/10/18 10:10:08;;;;;;;9.68;6.75;;;;;;;10.85;75.81;100484.41;5044920;28;20028;-79
2023/10/18 10:12:41;;;;;;;6.88;5.88;;;;;;;10.91;76.10;100476.88;5052339;28;20021;-78
2023/10/18 10:15:13;;;;;;;10.70;6.35;;;;;;;11.05;76.82;100469.63;5051492;28;20033;-78
2023/10/18 10:17:42;;;;;;;13.93;6.53;;;;;;;11.15;75.61;100460.84;5068094;28;20029;-78
2023/10/18 10:20:14;;;;;;;7.85;6.25;;;;;;;11.25;76.16;100455.66;5052686;28;20029;-78
2023/10/18 10:22:42;;;;;;;;;;;;;;;11.45;78.24;100459.25;5052032;28;20031;-78
2023/10/18 10:25:15;;;;;;;10.40;6.88;;;;;;;11.40;75.49;100454.38;5051849;28;19921;-78
2023/10/18 10:27:41;;;;;;;8.35;6.13;;;;;;;11.38;75.22;100450.22;5049559;28;20029;-78
2023/10/18 10:32:48;;;;;;;10.68;6.45;;;;;;;11.42;75.69;100430.53;5051127;28;20131;-78
2023/10/18 10:35:17;;;;;;;8.05;6.50;;;;;;;11.41;74.80;100434.13;5052300;28;20083;-78
2023/10/18 10:37:50;;;;;;;9.98;6.50;;;;;;;11.47;75.44;100433.63;5052031;28;20024;-76
2023/10/18 10:43:03;;;;;;;7.47;6.05;;;;;;;11.60;76.43;100423.69;5051507;28;20044;-77
2023/10/18 10:45:31;;;;;;;8.65;6.32;;;;;;;11.64;74.84;100413.75;5059427;28;20378;-77
2023/10/18 10:51:06;;;;;;;11.25;6.82;;;;;;;11.85;75.96;100406.66;5051475;28;20037;-77
2023/10/18 10:53:45;;;;;;;10.55;6.53;;;;;;;11.92;75.67;100399.91;5051676;28;20021;-76
2023/10/18 10:56:17;;;;;;;9.85;6.22;;;;;;;11.97;75.66;100399.50;5049760;28;20036;-77
2023/10/18 11:01:39;;;;;;;10.10;6.53;;;;;;;12.03;74.34;100391.06;5046771;28;20033;-76
2023/10/18 11:04:28;;;;;;;9.25;6.20;;;;;;;12.15;74.53;100384.72;5044027;28;20798;-76
2023/10/18 11:07:00;;;;;;;8.80;6.43;;;;;;;12.13;74.06;100363.75;5060090;28;20040;-76
2023/10/18 11:09:33;;;;;;;8.60;6.30;;;;;;;12.23;73.84;100369.03;5059240;28;20025;-76
2023/10/18 11:12:20;;;;;;;9.27;6.97;;;;;;;12.32;74.28;100357.66;5051031;28;20082;-76
2023/10/18 11:14:50;;;;;;;8.32;6.25;;;;;;;12.39;72.33;100357.94;5066352;28;20108;-76
2023/10/18 11:19:41;;;;;;;8.90;6.70;;;;;;;12.63;72.50;100354.94;5050404;28;20052;-76
2023/10/18 11:22:07;;;;;;;10.30;6.70;;;;;;;12.72;73.43;100327.69;5049115;28;20116;-76
2023/10/18 11:24:39;;;;;;;12.00;6.22;;;;;;;12.73;71.97;100329.34;5057758;28;20056;-77
2023/10/18 11:27:08;;;;;;;12.98;6.60;;;;;;;12.77;72.47;100321.00;5047733;28;20071;-79
2023/10/18 11:29:41;;;;;;;9.88;7.00;;;;;;;12.84;72.22;100321.31;5066214;28;20112;-77
2023/10/18 11:32:07;;;;;;;8.70;6.85;;;;;;;12.89;71.72;100312.97;5046497;28;20506;-77
2023/10/18 11:34:33;;;;;;;7.40;6.30;;;;;;;12.86;71.45;100314.91;5051005;28;20102;-76
2023/10/18 11:37:02;;;;;;;9.80;6.35;;;;;;;12.82;71.42;100307.41;5047987;28;20493;-76
2023/10/18 11:39:34;;;;;;;9.43;6.55;;;;;;;12.92;72.36;100308.22;5049393;28;20048;-76
2023/10/18 11:42:00;;;;;;;9.32;7.30;;;;;;;12.97;71.46;100298.06;5048084;28;20025;-76
2023/10/18 11:44:33;;;;;;;8.68;6.47;;;;;;;13.06;71.81;100297.22;5049290;28;20077;-77
2023/10/18 11:47:18;;;;;;;10.60;6.45;;;;;;;13.18;71.86;100282.88;5065750;28;20040;-76
2023/10/18 11:49:45;;;;;;;7.88;6.50;;;;;;;13.32;71.38;100273.69;5049746;28;20032;-76
2023/10/18 11:52:21;;;;;;;9.45;6.57;;;;;;;13.41;71.77;100271.97;5049308;28;20509;-76
2023/10/18 11:54:48;;;;;;;9.45;6.53;;;;;;;13.42;70.42;100265.69;5049298;28;20055;-76
2023/10/18 11:57:35;;;;;;;11.00;6.40;;;;;;;13.45;69.86;100262.75;5064776;28;20111;-76
2023/10/18 12:02:46;;;;;;;10.02;6.38;;;;;;;13.44;69.06;100256.66;5048631;28;20434;-76
2023/10/18 12:05:15;;;;;;;11.35;6.85;;;;;;;13.46;68.47;100257.31;5048597;28;20060;-76
2023/10/18 12:07:47;;;;;;;8.60;5.88;;;;;;;13.46;68.82;100251.22;5048545;28;20017;-76
2023/10/18 12:12:58;;;;;;;9.60;6.15;;;;;;;13.47;68.06;100229.09;5034430;28;20064;-76
2023/10/18 12:15:26;;;;;;;7.95;5.80;;;;;;;13.46;68.06;100222.13;5028851;28;20088;-76
2023/10/18 12:17:52;;;;;;;7.65;5.82;;;;;;;13.51;68.07;100211.97;5037385;28;20021;-76
2023/10/18 12:20:25;;;;;;;9.27;5.90;;;;;;;13.53;67.46;100210.00;5031919;28;20024;-76
2023/10/18 12:22:51;;;;;;;8.90;6.22;;;;;;;13.56;67.10;100199.13;5047540;28;20052;-76
2023/10/18 12:25:19;;;;;;;9.43;5.95;;;;;;;13.58;67.70;100205.09;5049850;28;20056;-76
2023/10/18 12:27:52;;;;;;;8.20;6.05;;;;;;;13.61;67.80;100199.53;5049867;28;20049;-76
2023/10/18 12:30:27;;;;;;;9.25;5.80;;;;;;;13.70;68.03;100198.63;5050314;28;20493;-76
2023/10/18 12:32:53;;;;;;;7.30;5.50;;;;;;;13.69;67.45;100196.97;5049475;28;20024;-79